Last 30 Days

AM-Roundhouse Btm 6950'

Daily Data | America/Los_Angeles
as of 2/24/24 2:04 AM PST
Date Daily Max Temp (°F) Time of Max Temp Daily Min Temp (°F) Time of Min Temp Wind Spd (mph) Daily Max Wind (mph) Max Wind Dir (°) Time of Max Wind Daily Rain (In) Season Precip (In) SnowDepth (in) Max RH (%) Min RH (%) Wet Bulb (°F) WetB Hrs <28F (hrs) Min Press (inHg) Time of Min Press MinBV Day (V)
2/23/24 38.6 1211 24.2 0552 1.9 10.3 S | 189 1215 0.00 27.83 76.8 85 59 28.2 10.9 30.15 1825 13.1
2/22/24 36.0 1156 19.0 0701 2.2 7.0 SSW | 201 1540 0.00 27.83 78.3 97 43 24.9 16.8 30.12 0240 13.1
2/21/24 29.6 1132 21.4 2318 3.1 19.4 SE | 140 1445 0.24 27.83 80.2 100 83 26.4 21.2 29.94 0325 13.1
2/20/24 32.3 1242 27.0 0607 4.8 23.9 SSW | 192 0121 0.47 27.59 80.1 100 86 28.5 8.5 29.96 1750 13.1
2/19/24 34.0 0153 28.0 0845 6.5 30.3 ESE | 122 0606 1.65 27.12 76.5 100 91 30.4 0.1 29.74 0305 13.1
2/18/24 39.2 2050 28.0 0827 3.8 21.0 SSE | 166 1850 0.51 25.47 69.2 100 60 31.3 0.4 29.81 2235 13.1
2/17/24 39.2 0921 30.0 2334 4.1 32.7 SSE | 150 2206 0.57 24.96 69.1 100 35 30.8 0.9 29.83 2220 13.1
2/16/24 39.3 1404 24.7 0405 0.9 9.1 SSW | 199 0139 0.00 24.39 66.1 97 68 30.1 8.4 30.08 2330 13.1
2/15/24 29.6 1232 24.6 1931 4.0 28.5 SSE | 154 0607 0.26 24.39 67.6 100 93 27.1 18.4 29.94 0025 13.1
2/14/24 31.2 1336 26.6 2354 7.1 32.0 SE | 136 2119 0.88 24.13 66.9 100 55 27.7 11.0 29.91 2055 13.2
2/13/24 39.1 1057 29.2 2220 4.3 18.6 SE | 130 1548 0.00 23.25 58.6 82 31 27.4 15.0 29.93 1455 13.0
2/12/24 44.0 1206 25.4 0434 2.4 9.3 SSE | 166 1627 0.00 23.25 59.6 84 23 27.0 13.6 30.02 2335 13.0
2/11/24 41.8 1122 20.4 0434 2.0 6.5 SSW | 211 2321 0.00 23.25 60.8 73 34 25.3 14.8 30.08 0325 13.1
2/10/24 30.1 1512 15.8 0209 3.1 22.9 N | 352 0639 0.00 23.25 61.7 92 35 19.2 24.0 29.98 0245 13.1
2/9/24 27.6 1301 17.0 0239 2.7 14.8 SSW | 202 0729 0.00 23.25 62.7 96 72 21.4 24.0 29.92 0320 13.1
2/8/24 28.1 1141 17.6 0746 1.6 11.4 SSE | 167 1549 0.04 23.25 63.9 98 75 21.6 24.0 29.74 0001 13.1
2/7/24 25.6 0437 21.3 2104 3.7 22.2 SSE | 153 1044 0.28 23.21 65.5 99 88 23.5 24.0 29.63 1335 13.1
2/6/24 31.0 1346 23.9 0349 0.8 7.6 SSW | 195 1442 0.02 22.93 62.4 100 80 26.1 21.8 29.62 1405 13.1
2/5/24 30.9 0150 26.3 2001 5.4 32.2 SSW | 208 0046 0.63 22.91 65.1 100 87 28.1 10.2 29.63 0040 13.1
2/4/24 34.8 1605 23.4 0114 4.5 30.8 WSW | 258 2058 1.51 22.28 62.4 100 74 28.4 12.2 29.60 1925 13.1
2/3/24 25.3 1457 18.4 0533 2.1 16.3 SE | 140 0201 0.02 20.77 50.7 99 91 21.2 24.0 29.84 0005 13.1
2/2/24 26.4 1102 19.7 0001 3.7 19.4 SSE | 151 2321 0.65 20.75 53.9 98 88 23.6 24.0 29.71 0230 13.1
2/1/24 34.2 0207 24.6 2359 2.2 21.6 SSE | 158 0002 0.54 20.10 42.0 100 88 28.3 11.6 29.61 0430 13.1
1/31/24 44.5 0001 32.6 1732 6.6 24.2 SE | 129 1407 0.12 19.56 36.4 94 34 33.1 0.0 29.67 2325 13.1
1/30/24 49.0 1153 41.4 0233 3.8 14.5 SSE | 165 1318 0.00 19.44 36.2 78 32 37.5 0.0 30.00 2345 13.1
1/29/24 53.9 1201 39.4 2238 1.9 9.3 S | 180 1936 0.00 19.44 36.6 72 34 38.2 0.0 30.18 1650 13.1
1/28/24 51.4 1133 37.5 0450 1.7 7.9 SSW | 207 1527 0.00 19.44 38.0 82 48 38.0 0.0 30.29 1620 13.1
1/27/24 47.2 1321 37.6 0041 1.6 6.4 SSW | 209 2026 0.00 19.44 38.9 95 57 38.1 0.0 30.30 1440 13.1
1/26/24 42.5 1213 27.9 0122 1.2 11.8 S | 173 1248 0.00 19.44 39.8 94 28 33.1 7.3 30.18 0135 13.1
1/25/24 34.3 1418 26.5 2253 2.8 22.4 SSE | 160 0314 0.04 19.44 40.7 96 62 27.4 14.8 30.00 0035 13.0
Max 53.9 - 41.4 - 7.1 32.7 - - 1.65 27.83 80.2 100 93 38.2 24.0 30.30 - 13.2
Avg - - - - 3.2 - - - - - - - - 28.4 - - - -
Min 25.3 - 15.8 - 0.8 6.4 - - 0.00 19.44 36.2 72 23 19.2 0.0 29.60 - 13.0